BGSF

Kangerlussuaq Airport

Kangerlussuaq, Greenland
METAR BGSF 220450Z AUTO 24004KT 9999NDV DZ OVC016/// 06/04 Q1002
Observed Flight Rules
Jun-22 @ 04:50 UTC (an hour ago)
Wind Clouds Conditions
240° at 4 knots
  • Overcast at 1,600' AGL
  • Drizzle
Temperatures Readings
Current 6°C / 43°F
Dewpoint 4°C / 39°F
Humidity 87%
Altimeter 29.59" Hg
Pressure 1002 hPa
Elevation 53
METAR BGSF 220450Z AUTO 24004KT 9999NDV DZ OVC016/// 06/04 Q1002
Observed Flight Rules
Jun-22 @ 04:50 UTC
(an hour ago)
Wind
240° at 4 knots
Clouds
  • Overcast at 1,600' AGL
Conditions
  • Drizzle
Temperature Dewpoint
6°C / 43°F 4°C / 39°F
Humidity Altimeter Pressure
87% 29.59" Hg 1002 hPa